Lowell, Wisconsin
Current Conditions -  °F | °C
As of 1:55 AM on Thursday 29 Jan 2015 (Local Time) from KUNU Reporting Station
Overcast Overcast  
Wind Chill: 30°   Ceiling: 2200
Heat Index: 30°   Visibility: 10mi
Dew Point: 26°   Wind: 0mph
Humidity: 83%   Direction: NA
Pressure: 29.78"   Gusts: NA
Location:  43.34°N, 88.82°W
Report Text: KUNU 290755Z AUTO 00000KT 10SM BKN022 BKN029 OVC035 M01/M03 A2978 RMK AO2 T10101035
Loading
Personal Weather Stations






























Interactive Weather Map New forecast layout! Learn more

10-Day Weather Forecast

Advertisements
Track Severe Weather on mobile